sensor_id;sensor_type;location;lat;lon;timestamp;noise_LAeq;noise_LA_min;noise_LA_max;noise_LA01;noise_LA95
11999;Laerm;40817;51.520;9.954;2022-08-05T00:01:10;41.99;33.44;59.52;;
11999;Laerm;40817;51.520;9.954;2022-08-05T00:03:38;43.04;35.94;65.24;;
11999;Laerm;40817;51.520;9.954;2022-08-05T00:06:06;43.76;37.70;63.96;;
11999;Laerm;40817;51.520;9.954;2022-08-05T00:08:34;41.95;37.70;62.42;;
11999;Laerm;40817;51.520;9.954;2022-08-05T00:11:07;41.52;35.36;45.42;;
11999;Laerm;40817;51.520;9.954;2022-08-05T00:13:39;43.03;35.94;62.33;;
11999;Laerm;40817;51.520;9.954;2022-08-05T00:16:10;42.27;34.31;50.64;;
11999;Laerm;40817;51.520;9.954;2022-08-05T00:18:44;42.25;34.69;44.90;;
11999;Laerm;40817;51.520;9.954;2022-08-05T00:21:13;42.40;34.31;46.97;;
11999;Laerm;40817;51.520;9.954;2022-08-05T00:23:45;43.09;36.69;52.56;;
11999;Laerm;40817;51.520;9.954;2022-08-05T00:26:14;41.72;32.35;44.90;;
11999;Laerm;40817;51.520;9.954;2022-08-05T00:28:42;41.56;32.93;53.46;;
11999;Laerm;40817;51.520;9.954;2022-08-05T00:31:11;42.15;33.44;60.38;;
11999;Laerm;40817;51.520;9.954;2022-08-05T00:33:41;42.24;33.90;52.05;;
11999;Laerm;40817;51.520;9.954;2022-08-05T00:36:09;42.04;34.69;46.13;;
11999;Laerm;40817;51.520;9.954;2022-08-05T00:38:37;42.24;35.04;50.41;;
11999;Laerm;40817;51.520;9.954;2022-08-05T00:41:05;44.06;35.04;57.20;;
11999;Laerm;40817;51.520;9.954;2022-08-05T00:43:33;41.93;33.44;49.25;;
11999;Laerm;40817;51.520;9.954;2022-08-05T00:46:02;41.45;33.90;47.22;;
11999;Laerm;40817;51.520;9.954;2022-08-05T00:48:31;41.67;32.93;54.89;;
11999;Laerm;40817;51.520;9.954;2022-08-05T00:50:58;43.27;35.36;65.97;;
11999;Laerm;40817;51.520;9.954;2022-08-05T00:53:26;42.14;34.69;44.69;;
11999;Laerm;40817;51.520;9.954;2022-08-05T00:55:54;41.93;35.04;53.97;;
11999;Laerm;40817;51.520;9.954;2022-08-05T00:58:21;41.89;36.34;49.28;;
11999;Laerm;40817;51.520;9.954;2022-08-05T01:00:49;42.51;35.36;46.57;;
11999;Laerm;40817;51.520;9.954;2022-08-05T01:03:17;42.49;36.69;45.20;;
11999;Laerm;40817;51.520;9.954;2022-08-05T01:05:46;42.21;38.37;45.14;;
11999;Laerm;40817;51.520;9.954;2022-08-05T01:08:14;42.05;34.31;53.19;;
11999;Laerm;40817;51.520;9.954;2022-08-05T01:10:50;41.72;35.36;50.34;;
11999;Laerm;40817;51.520;9.954;2022-08-05T01:13:27;41.76;34.69;44.27;;
11999;Laerm;40817;51.520;9.954;2022-08-05T01:16:02;42.51;37.52;45.89;;
11999;Laerm;40817;51.520;9.954;2022-08-05T01:18:42;42.26;34.69;44.47;;
11999;Laerm;40817;51.520;9.954;2022-08-05T01:21:37;42.27;36.69;46.30;;
11999;Laerm;40817;51.520;9.954;2022-08-05T01:24:25;41.90;34.31;44.87;;
11999;Laerm;40817;51.520;9.954;2022-08-05T01:27:11;42.21;36.20;44.83;;
11999;Laerm;40817;51.520;9.954;2022-08-05T01:29:48;41.50;36.91;48.15;;
11999;Laerm;40817;51.520;9.954;2022-08-05T01:32:21;46.60;33.44;68.41;;
11999;Laerm;40817;51.520;9.954;2022-08-05T01:34:57;42.04;34.31;48.05;;
11999;Laerm;40817;51.520;9.954;2022-08-05T01:37:35;45.93;39.34;61.08;;
11999;Laerm;40817;51.520;9.954;2022-08-05T01:40:05;43.02;37.88;53.40;;
11999;Laerm;40817;51.520;9.954;2022-08-05T01:42:37;62.75;38.47;88.75;;
11999;Laerm;40817;51.520;9.954;2022-08-05T01:45:08;65.35;40.98;84.58;;
11999;Laerm;40817;51.520;9.954;2022-08-05T01:47:37;70.87;54.34;84.13;;
11999;Laerm;40817;51.520;9.954;2022-08-05T01:50:10;66.21;45.20;86.95;;
11999;Laerm;40817;51.520;9.954;2022-08-05T01:52:41;54.17;39.70;79.80;;
11999;Laerm;40817;51.520;9.954;2022-08-05T01:55:12;45.93;37.32;76.67;;
11999;Laerm;40817;51.520;9.954;2022-08-05T01:57:45;44.16;36.69;67.68;;
11999;Laerm;40817;51.520;9.954;2022-08-05T02:00:15;46.14;37.70;65.60;;
11999;Laerm;40817;51.520;9.954;2022-08-05T02:02:51;47.06;36.20;75.08;;
11999;Laerm;40817;51.520;9.954;2022-08-05T02:05:26;44.27;36.69;67.64;;
11999;Laerm;40817;51.520;9.954;2022-08-05T02:10:24;42.88;36.69;57.57;;
11999;Laerm;40817;51.520;9.954;2022-08-05T02:12:57;42.60;35.36;56.18;;
11999;Laerm;40817;51.520;9.954;2022-08-05T02:15:34;43.25;35.04;65.99;;
11999;Laerm;40817;51.520;9.954;2022-08-05T02:18:07;42.58;35.66;56.06;;
11999;Laerm;40817;51.520;9.954;2022-08-05T02:20:47;42.25;33.44;53.49;;
11999;Laerm;40817;51.520;9.954;2022-08-05T02:23:22;41.99;36.20;45.45;;
11999;Laerm;40817;51.520;9.954;2022-08-05T02:25:51;42.07;35.36;59.02;;
11999;Laerm;40817;51.520;9.954;2022-08-05T02:28:25;44.06;38.74;61.72;;
11999;Laerm;40817;51.520;9.954;2022-08-05T02:31:00;42.79;38.05;56.85;;
11999;Laerm;40817;51.520;9.954;2022-08-05T02:33:29;42.73;36.20;58.79;;
11999;Laerm;40817;51.520;9.954;2022-08-05T02:36:02;42.51;38.52;57.00;;
11999;Laerm;40817;51.520;9.954;2022-08-05T02:38:32;48.28;38.87;71.72;;
11999;Laerm;40817;51.520;9.954;2022-08-05T02:41:01;61.15;40.62;86.40;;
11999;Laerm;40817;51.520;9.954;2022-08-05T02:43:30;62.67;51.95;79.43;;
11999;Laerm;40817;51.520;9.954;2022-08-05T02:46:00;63.17;50.79;82.88;;
11999;Laerm;40817;51.520;9.954;2022-08-05T02:48:29;61.71;52.19;84.88;;
11999;Laerm;40817;51.520;9.954;2022-08-05T02:50:58;57.48;44.51;82.71;;
11999;Laerm;40817;51.520;9.954;2022-08-05T02:53:26;60.47;52.21;85.42;;
11999;Laerm;40817;51.520;9.954;2022-08-05T02:55:55;58.43;45.07;85.88;;
11999;Laerm;40817;51.520;9.954;2022-08-05T02:58:24;55.93;44.76;83.51;;
11999;Laerm;40817;51.520;9.954;2022-08-05T03:00:54;57.43;45.99;84.34;;
11999;Laerm;40817;51.520;9.954;2022-08-05T03:03:23;56.66;45.54;84.31;;
11999;Laerm;40817;51.520;9.954;2022-08-05T03:05:53;55.74;43.94;84.70;;
11999;Laerm;40817;51.520;9.954;2022-08-05T03:08:24;52.52;42.22;83.76;;
11999;Laerm;40817;51.520;9.954;2022-08-05T03:10:57;54.12;43.24;83.86;;
11999;Laerm;40817;51.520;9.954;2022-08-05T03:13:25;56.56;45.11;84.08;;
11999;Laerm;40817;51.520;9.954;2022-08-05T03:15:53;60.46;48.98;85.41;;
11999;Laerm;40817;51.520;9.954;2022-08-05T03:18:26;56.45;43.81;85.95;;
11999;Laerm;40817;51.520;9.954;2022-08-05T03:20:54;55.91;45.11;82.93;;
11999;Laerm;40817;51.520;9.954;2022-08-05T03:23:22;53.75;44.97;81.49;;
11999;Laerm;40817;51.520;9.954;2022-08-05T03:25:50;58.38;44.83;82.29;;
11999;Laerm;40817;51.520;9.954;2022-08-05T03:28:37;53.17;44.07;81.80;;
11999;Laerm;40817;51.520;9.954;2022-08-05T03:31:07;53.53;45.20;81.88;;
11999;Laerm;40817;51.520;9.954;2022-08-05T03:33:36;54.50;45.27;81.77;;
11999;Laerm;40817;51.520;9.954;2022-08-05T03:36:05;53.33;43.72;81.88;;
11999;Laerm;40817;51.520;9.954;2022-08-05T03:38:33;51.30;41.06;82.07;;
11999;Laerm;40817;51.520;9.954;2022-08-05T03:41:06;48.29;40.71;81.86;;
11999;Laerm;40817;51.520;9.954;2022-08-05T03:43:34;44.75;40.13;69.40;;
11999;Laerm;40817;51.520;9.954;2022-08-05T03:46:03;43.87;40.80;62.54;;
11999;Laerm;40817;51.520;9.954;2022-08-05T03:48:31;43.79;40.53;60.30;;
11999;Laerm;40817;51.520;9.954;2022-08-05T03:51:11;45.19;40.53;68.83;;
11999;Laerm;40817;51.520;9.954;2022-08-05T03:53:48;45.34;42.41;58.63;;
11999;Laerm;40817;51.520;9.954;2022-08-05T03:56:25;44.03;41.46;57.80;;
11999;Laerm;40817;51.520;9.954;2022-08-05T03:59:04;43.88;40.80;67.33;;
11999;Laerm;40817;51.520;9.954;2022-08-05T04:01:39;43.73;40.43;68.21;;
11999;Laerm;40817;51.520;9.954;2022-08-05T04:04:10;43.61;40.23;68.14;;
11999;Laerm;40817;51.520;9.954;2022-08-05T04:06:41;42.99;39.57;61.74;;
11999;Laerm;40817;51.520;9.954;2022-08-05T04:09:09;43.17;39.46;67.87;;
11999;Laerm;40817;51.520;9.954;2022-08-05T04:11:38;43.25;39.81;68.21;;
11999;Laerm;40817;51.520;9.954;2022-08-05T04:14:07;43.38;39.92;58.06;;
11999;Laerm;40817;51.520;9.954;2022-08-05T04:16:35;43.69;40.27;57.85;;
11999;Laerm;40817;51.520;9.954;2022-08-05T04:19:04;43.56;39.70;57.99;;
11999;Laerm;40817;51.520;9.954;2022-08-05T04:21:31;42.80;38.81;55.86;;
11999;Laerm;40817;51.520;9.954;2022-08-05T04:24:01;43.53;40.23;51.56;;
11999;Laerm;40817;51.520;9.954;2022-08-05T04:26:29;43.50;39.34;67.41;;
11999;Laerm;40817;51.520;9.954;2022-08-05T04:28:57;44.05;39.08;57.88;;
11999;Laerm;40817;51.520;9.954;2022-08-05T04:31:25;43.68;37.88;51.84;;
11999;Laerm;40817;51.520;9.954;2022-08-05T04:33:53;42.92;39.21;55.23;;
11999;Laerm;40817;51.520;9.954;2022-08-05T04:36:21;43.26;40.53;51.79;;
11999;Laerm;40817;51.520;9.954;2022-08-05T04:38:49;43.25;39.34;50.94;;
11999;Laerm;40817;51.520;9.954;2022-08-05T04:41:19;43.88;40.89;53.42;;
11999;Laerm;40817;51.520;9.954;2022-08-05T04:43:49;44.23;41.22;53.02;;
11999;Laerm;40817;51.520;9.954;2022-08-05T04:46:17;44.61;41.06;53.86;;
11999;Laerm;40817;51.520;9.954;2022-08-05T04:48:44;44.23;40.23;63.19;;
11999;Laerm;40817;51.520;9.954;2022-08-05T04:51:12;42.99;39.58;54.55;;
11999;Laerm;40817;51.520;9.954;2022-08-05T04:53:40;43.47;40.23;52.66;;
11999;Laerm;40817;51.520;9.954;2022-08-05T04:56:08;44.06;39.81;59.79;;
11999;Laerm;40817;51.520;9.954;2022-08-05T04:58:37;42.58;37.88;52.40;;
11999;Laerm;40817;51.520;9.954;2022-08-05T05:01:05;42.88;39.58;52.57;;
11999;Laerm;40817;51.520;9.954;2022-08-05T05:03:33;46.45;39.68;65.36;;
11999;Laerm;40817;51.520;9.954;2022-08-05T05:06:01;49.49;40.62;63.64;;
11999;Laerm;40817;51.520;9.954;2022-08-05T05:08:29;48.21;42.47;60.62;;
11999;Laerm;40817;51.520;9.954;2022-08-05T05:10:56;44.01;40.43;58.84;;
11999;Laerm;40817;51.520;9.954;2022-08-05T05:13:24;43.64;40.03;62.85;;
11999;Laerm;40817;51.520;9.954;2022-08-05T05:15:53;44.92;40.71;60.66;;
11999;Laerm;40817;51.520;9.954;2022-08-05T05:18:21;44.25;40.03;59.64;;
11999;Laerm;40817;51.520;9.954;2022-08-05T05:20:49;44.03;40.62;60.50;;
11999;Laerm;40817;51.520;9.954;2022-08-05T05:23:17;43.93;40.33;60.09;;
11999;Laerm;40817;51.520;9.954;2022-08-05T05:25:45;44.54;40.33;66.99;;
11999;Laerm;40817;51.520;9.954;2022-08-05T05:28:12;47.48;40.62;67.46;;
11999;Laerm;40817;51.520;9.954;2022-08-05T05:30:40;57.08;40.13;67.63;;
11999;Laerm;40817;51.520;9.954;2022-08-05T05:33:09;44.51;40.89;68.26;;
11999;Laerm;40817;51.520;9.954;2022-08-05T05:35:37;46.46;42.47;61.20;;
11999;Laerm;40817;51.520;9.954;2022-08-05T05:38:05;45.99;42.29;69.23;;
11999;Laerm;40817;51.520;9.954;2022-08-05T05:40:33;48.74;41.75;80.66;;
11999;Laerm;40817;51.520;9.954;2022-08-05T05:43:01;44.67;40.33;69.25;;
11999;Laerm;40817;51.520;9.954;2022-08-05T05:45:29;44.64;40.53;68.80;;
11999;Laerm;40817;51.520;9.954;2022-08-05T05:47:57;44.72;40.33;68.45;;
11999;Laerm;40817;51.520;9.954;2022-08-05T05:50:26;44.18;41.14;63.05;;
11999;Laerm;40817;51.520;9.954;2022-08-05T05:52:54;43.73;40.03;63.65;;
11999;Laerm;40817;51.520;9.954;2022-08-05T05:55:22;43.94;40.23;59.48;;
11999;Laerm;40817;51.520;9.954;2022-08-05T05:57:49;44.19;41.22;62.42;;
11999;Laerm;40817;51.520;9.954;2022-08-05T06:00:20;44.42;40.80;62.84;;
11999;Laerm;40817;51.520;9.954;2022-08-05T06:02:48;44.86;41.53;62.36;;
11999;Laerm;40817;51.520;9.954;2022-08-05T06:05:16;47.10;42.22;59.51;;
11999;Laerm;40817;51.520;9.954;2022-08-05T06:07:47;44.98;41.22;63.63;;
11999;Laerm;40817;51.520;9.954;2022-08-05T06:10:15;44.12;41.22;61.46;;
11999;Laerm;40817;51.520;9.954;2022-08-05T06:12:43;46.92;40.13;71.78;;
11999;Laerm;40817;51.520;9.954;2022-08-05T06:15:11;45.05;41.75;62.45;;
11999;Laerm;40817;51.520;9.954;2022-08-05T06:17:38;45.24;41.30;62.14;;
11999;Laerm;40817;51.520;9.954;2022-08-05T06:20:08;44.16;40.62;63.99;;
11999;Laerm;40817;51.520;9.954;2022-08-05T06:22:36;44.24;39.46;68.34;;
11999;Laerm;40817;51.520;9.954;2022-08-05T06:25:06;43.54;40.23;60.47;;
11999;Laerm;40817;51.520;9.954;2022-08-05T06:27:34;43.57;39.81;54.06;;
11999;Laerm;40817;51.520;9.954;2022-08-05T06:30:03;43.50;39.46;63.25;;
11999;Laerm;40817;51.520;9.954;2022-08-05T06:32:32;43.51;40.53;50.25;;
11999;Laerm;40817;51.520;9.954;2022-08-05T06:34:59;43.69;40.53;65.07;;
11999;Laerm;40817;51.520;9.954;2022-08-05T06:37:27;43.29;39.34;54.13;;
11999;Laerm;40817;51.520;9.954;2022-08-05T06:39:55;48.26;40.62;71.78;;
11999;Laerm;40817;51.520;9.954;2022-08-05T06:42:24;50.37;40.03;62.72;;
11999;Laerm;40817;51.520;9.954;2022-08-05T06:44:51;43.55;40.13;53.61;;
11999;Laerm;40817;51.520;9.954;2022-08-05T06:47:19;43.62;39.81;60.45;;
11999;Laerm;40817;51.520;9.954;2022-08-05T06:49:47;43.96;40.80;50.87;;
11999;Laerm;40817;51.520;9.954;2022-08-05T06:52:15;43.47;40.33;47.20;;
11999;Laerm;40817;51.520;9.954;2022-08-05T06:54:42;43.94;40.03;52.84;;
11999;Laerm;40817;51.520;9.954;2022-08-05T06:57:10;44.69;41.96;53.73;;
11999;Laerm;40817;51.520;9.954;2022-08-05T06:59:41;44.83;40.71;55.97;;
11999;Laerm;40817;51.520;9.954;2022-08-05T07:02:09;44.48;40.62;63.56;;
11999;Laerm;40817;51.520;9.954;2022-08-05T07:04:37;44.16;39.21;55.39;;
11999;Laerm;40817;51.520;9.954;2022-08-05T07:07:05;47.19;39.81;62.92;;
11999;Laerm;40817;51.520;9.954;2022-08-05T07:09:32;43.94;38.52;59.09;;
11999;Laerm;40817;51.520;9.954;2022-08-05T07:12:00;44.41;40.23;68.27;;
11999;Laerm;40817;51.520;9.954;2022-08-05T07:14:28;43.54;39.21;63.32;;
11999;Laerm;40817;51.520;9.954;2022-08-05T07:17:25;42.67;39.34;53.23;;
11999;Laerm;40817;51.520;9.954;2022-08-05T07:19:54;44.94;39.92;62.08;;
11999;Laerm;40817;51.520;9.954;2022-08-05T07:22:22;44.21;40.71;62.58;;
11999;Laerm;40817;51.520;9.954;2022-08-05T07:24:49;43.33;39.92;49.25;;
11999;Laerm;40817;51.520;9.954;2022-08-05T07:27:17;45.52;39.21;63.51;;
11999;Laerm;40817;51.520;9.954;2022-08-05T07:29:45;43.11;38.95;57.47;;
11999;Laerm;40817;51.520;9.954;2022-08-05T07:32:12;42.77;38.60;60.25;;
11999;Laerm;40817;51.520;9.954;2022-08-05T07:34:41;42.89;38.21;63.15;;
11999;Laerm;40817;51.520;9.954;2022-08-05T07:37:09;43.29;38.81;56.05;;
11999;Laerm;40817;51.520;9.954;2022-08-05T07:39:36;42.83;37.32;62.24;;
11999;Laerm;40817;51.520;9.954;2022-08-05T07:42:05;43.51;37.12;54.53;;
11999;Laerm;40817;51.520;9.954;2022-08-05T07:44:32;43.92;38.52;54.81;;
11999;Laerm;40817;51.520;9.954;2022-08-05T07:47:00;43.49;39.34;61.70;;
11999;Laerm;40817;51.520;9.954;2022-08-05T07:49:28;43.32;38.52;55.38;;
11999;Laerm;40817;51.520;9.954;2022-08-05T07:51:57;43.72;38.67;54.57;;
11999;Laerm;40817;51.520;9.954;2022-08-05T07:54:25;42.79;38.05;49.74;;
11999;Laerm;40817;51.520;9.954;2022-08-05T07:56:52;43.20;38.37;65.67;;
11999;Laerm;40817;51.520;9.954;2022-08-05T07:59:20;42.84;38.37;55.28;;
11999;Laerm;40817;51.520;9.954;2022-08-05T08:01:48;45.07;38.05;61.28;;
11999;Laerm;40817;51.520;9.954;2022-08-05T08:04:15;41.68;37.88;49.94;;
11999;Laerm;40817;51.520;9.954;2022-08-05T08:06:43;41.84;37.88;44.80;;
11999;Laerm;40817;51.520;9.954;2022-08-05T08:09:12;42.97;37.88;71.14;;
11999;Laerm;40817;51.520;9.954;2022-08-05T08:11:40;43.08;38.81;57.13;;
11999;Laerm;40817;51.520;9.954;2022-08-05T08:14:07;47.85;38.67;76.44;;
11999;Laerm;40817;51.520;9.954;2022-08-05T08:16:35;43.04;39.08;53.86;;
11999;Laerm;40817;51.520;9.954;2022-08-05T08:19:03;43.28;40.03;46.29;;
11999;Laerm;40817;51.520;9.954;2022-08-05T08:21:30;42.83;38.52;59.32;;
11999;Laerm;40817;51.520;9.954;2022-08-05T08:23:58;44.80;38.37;60.32;;
11999;Laerm;40817;51.520;9.954;2022-08-05T08:26:27;42.73;38.67;54.19;;
11999;Laerm;40817;51.520;9.954;2022-08-05T08:28:55;41.94;38.05;48.13;;
11999;Laerm;40817;51.520;9.954;2022-08-05T08:31:22;43.96;37.88;55.89;;
11999;Laerm;40817;51.520;9.954;2022-08-05T08:33:50;43.11;38.95;49.39;;
11999;Laerm;40817;51.520;9.954;2022-08-05T08:36:18;43.26;39.21;50.44;;
11999;Laerm;40817;51.520;9.954;2022-08-05T08:38:45;42.52;38.52;45.20;;
11999;Laerm;40817;51.520;9.954;2022-08-05T08:41:14;42.54;38.37;45.36;;
11999;Laerm;40817;51.520;9.954;2022-08-05T08:43:44;50.46;39.08;69.21;;
11999;Laerm;40817;51.520;9.954;2022-08-05T08:46:12;43.69;38.81;61.84;;
11999;Laerm;40817;51.520;9.954;2022-08-05T08:48:41;43.17;38.05;47.04;;
11999;Laerm;40817;51.520;9.954;2022-08-05T08:51:11;43.24;39.34;46.91;;
11999;Laerm;40817;51.520;9.954;2022-08-05T08:53:39;43.03;38.95;49.16;;
11999;Laerm;40817;51.520;9.954;2022-08-05T08:56:07;42.74;38.21;52.15;;
11999;Laerm;40817;51.520;9.954;2022-08-05T08:58:35;43.55;39.46;51.01;;
11999;Laerm;40817;51.520;9.954;2022-08-05T09:01:06;43.12;39.08;59.90;;
11999;Laerm;40817;51.520;9.954;2022-08-05T09:03:36;43.99;39.08;59.31;;
11999;Laerm;40817;51.520;9.954;2022-08-05T09:06:05;43.51;38.05;57.40;;
11999;Laerm;40817;51.520;9.954;2022-08-05T09:08:32;42.34;38.52;52.52;;
11999;Laerm;40817;51.520;9.954;2022-08-05T09:11:00;42.53;38.81;49.62;;
11999;Laerm;40817;51.520;9.954;2022-08-05T09:13:28;43.14;38.37;58.10;;
11999;Laerm;40817;51.520;9.954;2022-08-05T09:15:56;45.44;38.37;65.48;;
11999;Laerm;40817;51.520;9.954;2022-08-05T09:18:26;42.43;38.81;56.73;;
11999;Laerm;40817;51.520;9.954;2022-08-05T09:20:54;42.88;39.08;50.05;;
11999;Laerm;40817;51.520;9.954;2022-08-05T09:23:22;42.67;38.81;48.48;;
11999;Laerm;40817;51.520;9.954;2022-08-05T09:26:06;42.96;39.70;50.15;;
11999;Laerm;40817;51.520;9.954;2022-08-05T09:28:36;42.55;38.81;51.77;;
11999;Laerm;40817;51.520;9.954;2022-08-05T09:31:07;43.56;39.21;54.93;;
11999;Laerm;40817;51.520;9.954;2022-08-05T09:33:49;44.03;40.33;53.11;;
11999;Laerm;40817;51.520;9.954;2022-08-05T09:36:18;43.44;39.08;52.63;;
11999;Laerm;40817;51.520;9.954;2022-08-05T09:38:56;42.76;38.81;46.71;;
11999;Laerm;40817;51.520;9.954;2022-08-05T09:41:25;45.75;39.81;60.38;;
11999;Laerm;40817;51.520;9.954;2022-08-05T09:43:53;43.56;39.34;49.82;;
11999;Laerm;40817;51.520;9.954;2022-08-05T09:46:27;42.92;39.34;51.30;;
11999;Laerm;40817;51.520;9.954;2022-08-05T09:48:59;42.97;38.05;46.55;;
11999;Laerm;40817;51.520;9.954;2022-08-05T09:51:35;43.18;38.81;50.54;;
11999;Laerm;40817;51.520;9.954;2022-08-05T09:54:05;43.71;39.46;52.78;;
11999;Laerm;40817;51.520;9.954;2022-08-05T09:56:36;44.43;37.88;55.82;;
11999;Laerm;40817;51.520;9.954;2022-08-05T09:59:08;43.33;38.95;51.69;;
11999;Laerm;40817;51.520;9.954;2022-08-05T10:01:42;51.18;40.13;60.49;;
11999;Laerm;40817;51.520;9.954;2022-08-05T10:04:14;50.72;39.58;59.88;;
11999;Laerm;40817;51.520;9.954;2022-08-05T10:06:53;42.77;38.81;51.85;;
11999;Laerm;40817;51.520;9.954;2022-08-05T10:09:22;43.91;39.58;52.68;;
11999;Laerm;40817;51.520;9.954;2022-08-05T10:11:50;42.82;38.21;54.60;;
11999;Laerm;40817;51.520;9.954;2022-08-05T10:14:21;43.35;38.95;55.16;;
11999;Laerm;40817;51.520;9.954;2022-08-05T10:16:51;43.36;39.70;52.31;;
11999;Laerm;40817;51.520;9.954;2022-08-05T10:19:24;46.86;39.81;64.36;;
11999;Laerm;40817;51.520;9.954;2022-08-05T10:21:52;42.98;39.34;46.69;;
11999;Laerm;40817;51.520;9.954;2022-08-05T10:24:20;45.80;38.67;63.62;;
11999;Laerm;40817;51.520;9.954;2022-08-05T10:26:49;48.60;40.43;66.24;;
11999;Laerm;40817;51.520;9.954;2022-08-05T10:29:20;42.99;39.21;52.47;;
11999;Laerm;40817;51.520;9.954;2022-08-05T10:31:48;42.73;38.95;49.46;;
11999;Laerm;40817;51.520;9.954;2022-08-05T10:34:17;41.88;37.70;46.15;;
11999;Laerm;40817;51.520;9.954;2022-08-05T10:36:46;43.21;37.12;53.27;;
11999;Laerm;40817;51.520;9.954;2022-08-05T10:39:20;43.28;40.03;49.82;;
11999;Laerm;40817;51.520;9.954;2022-08-05T10:41:58;42.91;39.58;48.34;;
11999;Laerm;40817;51.520;9.954;2022-08-05T10:44:28;43.09;39.81;46.07;;
11999;Laerm;40817;51.520;9.954;2022-08-05T10:46:57;45.90;38.95;64.19;;
11999;Laerm;40817;51.520;9.954;2022-08-05T10:49:26;43.91;39.46;58.27;;
11999;Laerm;40817;51.520;9.954;2022-08-05T10:51:56;43.03;39.08;48.49;;
11999;Laerm;40817;51.520;9.954;2022-08-05T10:54:45;43.31;40.36;52.01;;
11999;Laerm;40817;51.520;9.954;2022-08-05T10:57:25;43.10;39.46;50.55;;
11999;Laerm;40817;51.520;9.954;2022-08-05T11:00:10;43.71;40.08;51.87;;
11999;Laerm;40817;51.520;9.954;2022-08-05T11:02:43;43.20;39.58;53.66;;
11999;Laerm;40817;51.520;9.954;2022-08-05T11:05:33;43.39;38.67;49.55;;
11999;Laerm;40817;51.520;9.954;2022-08-05T11:08:04;44.67;42.09;52.38;;
11999;Laerm;40817;51.520;9.954;2022-08-05T11:10:34;43.47;40.03;50.92;;
11999;Laerm;40817;51.520;9.954;2022-08-05T11:13:04;43.80;39.70;52.56;;
11999;Laerm;40817;51.520;9.954;2022-08-05T11:15:36;43.48;39.99;54.99;;
11999;Laerm;40817;51.520;9.954;2022-08-05T11:18:22;44.60;39.21;59.58;;
11999;Laerm;40817;51.520;9.954;2022-08-05T11:20:52;43.59;39.21;54.43;;
11999;Laerm;40817;51.520;9.954;2022-08-05T11:23:50;43.26;38.81;54.75;;
11999;Laerm;40817;51.520;9.954;2022-08-05T11:26:24;44.35;39.34;72.74;;
11999;Laerm;40817;51.520;9.954;2022-08-05T11:28:53;45.18;39.46;63.01;;
11999;Laerm;40817;51.520;9.954;2022-08-05T11:31:27;44.67;39.34;62.65;;
11999;Laerm;40817;51.520;9.954;2022-08-05T11:34:05;43.43;39.70;53.57;;
11999;Laerm;40817;51.520;9.954;2022-08-05T11:36:48;42.79;38.95;52.54;;
11999;Laerm;40817;51.520;9.954;2022-08-05T11:39:56;54.08;40.03;71.90;;
11999;Laerm;40817;51.520;9.954;2022-08-05T11:42:25;43.66;39.81;59.65;;
11999;Laerm;40817;51.520;9.954;2022-08-05T11:45:01;45.14;40.23;66.32;;
11999;Laerm;40817;51.520;9.954;2022-08-05T11:47:31;45.63;41.22;61.30;;
11999;Laerm;40817;51.520;9.954;2022-08-05T11:49:59;50.82;41.22;82.98;;
11999;Laerm;40817;51.520;9.954;2022-08-05T11:52:28;45.97;42.09;63.72;;
11999;Laerm;40817;51.520;9.954;2022-08-05T11:54:58;47.23;42.47;60.70;;
11999;Laerm;40817;51.520;9.954;2022-08-05T11:57:29;53.46;42.22;84.73;;
11999;Laerm;40817;51.520;9.954;2022-08-05T11:59:57;46.02;41.14;63.76;;
11999;Laerm;40817;51.520;9.954;2022-08-05T12:02:28;46.99;41.82;65.19;;
11999;Laerm;40817;51.520;9.954;2022-08-05T12:05:00;46.13;42.16;62.89;;
11999;Laerm;40817;51.520;9.954;2022-08-05T12:07:34;45.62;41.89;62.31;;
11999;Laerm;40817;51.520;9.954;2022-08-05T12:10:05;46.66;41.68;61.52;;
11999;Laerm;40817;51.520;9.954;2022-08-05T12:12:34;47.83;40.62;63.07;;
11999;Laerm;40817;51.520;9.954;2022-08-05T12:15:03;45.54;40.98;57.02;;
11999;Laerm;40817;51.520;9.954;2022-08-05T12:17:35;44.90;41.22;55.35;;
11999;Laerm;40817;51.520;9.954;2022-08-05T12:20:07;49.82;41.14;74.62;;
11999;Laerm;40817;51.520;9.954;2022-08-05T12:22:35;43.95;41.30;50.48;;
11999;Laerm;40817;51.520;9.954;2022-08-05T12:25:06;43.90;40.53;54.16;;
11999;Laerm;40817;51.520;9.954;2022-08-05T12:27:33;43.92;40.89;59.49;;
11999;Laerm;40817;51.520;9.954;2022-08-05T12:30:05;43.70;41.53;50.68;;
11999;Laerm;40817;51.520;9.954;2022-08-05T12:32:34;44.44;41.38;63.05;;
11999;Laerm;40817;51.520;9.954;2022-08-05T12:35:15;46.76;40.89;75.94;;
11999;Laerm;40817;51.520;9.954;2022-08-05T12:37:46;47.53;41.61;78.76;;
11999;Laerm;40817;51.520;9.954;2022-08-05T12:40:15;43.87;41.14;54.40;;
11999;Laerm;40817;51.520;9.954;2022-08-05T12:42:45;43.49;40.98;54.38;;
11999;Laerm;40817;51.520;9.954;2022-08-05T12:45:13;43.85;41.38;59.19;;
11999;Laerm;40817;51.520;9.954;2022-08-05T12:47:40;44.02;41.14;56.77;;
11999;Laerm;40817;51.520;9.954;2022-08-05T12:50:14;43.57;40.13;54.68;;
11999;Laerm;40817;51.520;9.954;2022-08-05T12:52:54;44.14;41.30;57.37;;
11999;Laerm;40817;51.520;9.954;2022-08-05T12:55:29;43.68;41.33;50.67;;
11999;Laerm;40817;51.520;9.954;2022-08-05T12:57:58;50.39;40.98;77.79;;
11999;Laerm;40817;51.520;9.954;2022-08-05T13:00:28;44.13;41.68;57.35;;
11999;Laerm;40817;51.520;9.954;2022-08-05T13:02:56;44.50;40.62;59.84;;
11999;Laerm;40817;51.520;9.954;2022-08-05T13:05:25;45.28;41.30;63.06;;
11999;Laerm;40817;51.520;9.954;2022-08-05T13:07:57;44.67;41.30;67.93;;
11999;Laerm;40817;51.520;9.954;2022-08-05T13:10:26;47.08;41.22;71.80;;
11999;Laerm;40817;51.520;9.954;2022-08-05T13:12:55;43.85;40.89;51.93;;
11999;Laerm;40817;51.520;9.954;2022-08-05T13:15:29;43.81;41.38;56.19;;
11999;Laerm;40817;51.520;9.954;2022-08-05T13:17:58;43.85;41.30;54.94;;
11999;Laerm;40817;51.520;9.954;2022-08-05T13:20:33;44.76;40.62;67.81;;
11999;Laerm;40817;51.520;9.954;2022-08-05T13:23:02;43.98;41.46;61.82;;
11999;Laerm;40817;51.520;9.954;2022-08-05T13:25:31;43.84;40.33;62.37;;
11999;Laerm;40817;51.520;9.954;2022-08-05T13:28:01;43.86;40.89;52.18;;
11999;Laerm;40817;51.520;9.954;2022-08-05T13:30:29;43.56;40.71;56.29;;
11999;Laerm;40817;51.520;9.954;2022-08-05T13:32:57;44.57;41.14;56.27;;
11999;Laerm;40817;51.520;9.954;2022-08-05T13:35:25;44.56;41.30;62.12;;
11999;Laerm;40817;51.520;9.954;2022-08-05T13:37:53;43.54;40.98;52.47;;
11999;Laerm;40817;51.520;9.954;2022-08-05T13:40:21;43.65;40.98;51.97;;
11999;Laerm;40817;51.520;9.954;2022-08-05T13:42:50;44.93;40.80;58.41;;
11999;Laerm;40817;51.520;9.954;2022-08-05T13:45:18;43.29;40.08;47.93;;
11999;Laerm;40817;51.520;9.954;2022-08-05T13:47:46;51.56;40.43;82.75;;
11999;Laerm;40817;51.520;9.954;2022-08-05T13:50:14;44.30;38.67;59.05;;
11999;Laerm;40817;51.520;9.954;2022-08-05T13:52:42;44.35;40.53;62.77;;
11999;Laerm;40817;51.520;9.954;2022-08-05T13:55:09;43.24;40.33;46.71;;
11999;Laerm;40817;51.520;9.954;2022-08-05T13:57:38;45.02;39.92;67.97;;
11999;Laerm;40817;51.520;9.954;2022-08-05T14:00:10;43.55;39.92;58.35;;
11999;Laerm;40817;51.520;9.954;2022-08-05T14:02:38;43.90;40.13;65.65;;
11999;Laerm;40817;51.520;9.954;2022-08-05T14:05:07;43.15;39.81;55.87;;